METAR Data
IDs: Format: Raw Decoded Include TAF

Data at: 0529 UTC 30 Jun 2022

KVLD 300453Z AUTO 04004KT 10SM FEW120 23/23 A3018 RMK AO2 SLP225 T02330228 403560228